Time;durP1;ratioP1;P1;durP2;ratioP2;P2;SDS_P1;SDS_P2;PMS_P1;PMS_P2;Temp;Humidity;BMP_temperature;BMP_pressure;BME280_temperature;BME280_humidity;BME280_pressure;Samples;Min_cycle;Max_cycle;Signal;HPM_P1;HPM_P2
2023/02/15 00:00:40;;;;;;;;;;;-0.50;99.90;;;;;;4912542;29;19977;-72
2023/02/15 00:03:15;;;;;;;;;;;-0.50;99.90;;;;;;4919762;29;19977;-72
2023/02/15 00:05:52;;;;;;;;;;;-0.50;99.90;;;;;;4934902;29;20018;-72
2023/02/15 00:08:22;;;;;;;;;;;-0.60;99.90;;;;;;4903262;29;20013;-72
2023/02/15 00:11:02;;;;;;;;;;;-0.60;99.90;;;;;;4920118;29;19927;-72
2023/02/15 00:13:32;;;;;;;;;;;-0.70;99.90;;;;;;4929176;29;19939;-73
2023/02/15 00:16:03;;;;;;;;;;;-0.70;99.90;;;;;;4905107;29;19938;-72
2023/02/15 00:18:35;;;;;;;;;;;-0.60;99.90;;;;;;4904377;29;19934;-72
2023/02/15 00:21:07;;;;;;;;;;;-0.60;99.90;;;;;;4909704;29;19934;-72
2023/02/15 00:24:05;;;;;;;;;;;-0.60;99.90;;;;;;4924593;29;19919;-72
2023/02/15 00:26:50;;;;;;;;;;;-0.60;99.90;;;;;;4929743;29;19957;-72
2023/02/15 00:29:34;;;;;;;;;;;-0.70;99.90;;;;;;4921941;29;19986;-72
2023/02/15 00:32:17;;;;;;;;;;;-0.70;99.90;;;;;;4898358;29;19934;-72
2023/02/15 00:34:48;;;;;;;;;;;-0.70;99.90;;;;;;4909396;29;19915;-72
2023/02/15 00:37:18;;;;;;;;;;;-0.70;99.90;;;;;;4921978;29;19954;-72
2023/02/15 00:39:51;;;;;;;;;;;-0.80;99.90;;;;;;4925853;29;19958;-71
2023/02/15 00:42:24;;;;;;;;;;;-0.80;99.90;;;;;;4931575;29;19931;-72
2023/02/15 00:44:57;;;;;;;;;;;-0.80;99.90;;;;;;4920009;29;19934;-72
2023/02/15 00:47:32;;;;;;;;;;;-0.70;99.90;;;;;;4923015;29;19954;-71
2023/02/15 00:50:09;;;;;;;;;;;-0.70;99.90;;;;;;4929325;29;19934;-72
2023/02/15 00:52:41;;;;;;;;;;;-0.80;99.90;;;;;;4899677;29;19927;-72
2023/02/15 00:55:30;;;;;;;;;;;-0.80;99.90;;;;;;4925632;29;19934;-71
2023/02/15 00:58:00;;;;;;;;;;;-0.80;99.90;;;;;;4915196;29;21558;-71
2023/02/15 01:00:33;;;;;;;;;;;-0.70;99.90;;;;;;4899453;29;19946;-73
2023/02/15 01:03:05;;;;;;;;;;;-0.80;99.90;;;;;;4935439;29;20675;-72
2023/02/15 01:05:38;;;;;;;;;;;-0.80;99.90;;;;;;4906729;29;19927;-72
2023/02/15 01:08:10;;;;;;;;;;;-0.80;99.90;;;;;;4933531;29;20368;-72
2023/02/15 01:10:41;;;;;;;;;;;-0.80;99.90;;;;;;4922215;29;19926;-72
2023/02/15 01:13:13;;;;;;;;;;;-0.80;99.90;;;;;;4916876;29;19931;-71
2023/02/15 01:15:54;;;;;;;;;;;-0.80;99.90;;;;;;4917375;29;20022;-72
2023/02/15 01:18:23;;;;;;;;;;;-0.80;99.90;;;;;;4901785;29;19934;-72
2023/02/15 01:20:54;;;;;;;;;;;-0.80;99.90;;;;;;4919821;29;19975;-71
2023/02/15 01:23:23;;;;;;;;;;;-0.80;99.90;;;;;;4907602;29;19950;-72
2023/02/15 01:25:57;;;;;;;;;;;-0.90;99.90;;;;;;4915781;29;19933;-71
2023/02/15 01:28:28;;;;;;;;;;;-0.90;99.90;;;;;;4897131;29;19967;-72
2023/02/15 01:30:56;;;;;;;;;;;-0.90;99.90;;;;;;4898841;29;19937;-72
2023/02/15 01:33:26;;;;;;;;;;;-0.90;99.90;;;;;;4902161;29;19961;-72
2023/02/15 01:36:02;;;;;;;;;;;-1.00;99.90;;;;;;4907156;29;20317;-72
2023/02/15 01:38:32;;;;;;;;;;;-1.10;99.90;;;;;;4886593;29;19926;-72
2023/02/15 01:41:22;;;;;;;;;;;-1.10;99.90;;;;;;4907460;29;20026;-72
2023/02/15 01:44:01;;;;;;;;;;;-1.10;99.90;;;;;;4900530;29;20525;-71
2023/02/15 01:46:48;;;;;;;;;;;-1.20;99.90;;;;;;4899875;29;19934;-71
2023/02/15 01:49:20;;;;;;;;;;;-1.20;99.90;;;;;;4912592;29;19927;-72
2023/02/15 01:51:52;;;;;;;;;;;-1.20;99.90;;;;;;4907852;29;19955;-72
2023/02/15 01:54:30;;;;;;;;;;;-1.20;99.90;;;;;;4919885;29;20393;-72
2023/02/15 01:57:12;;;;;;;;;;;-1.20;99.90;;;;;;4918530;29;19933;-72
2023/02/15 01:59:45;;;;;;;;;;;-1.20;99.90;;;;;;4902272;29;19975;-71
2023/02/15 02:02:24;;;;;;;;;;;-1.20;99.90;;;;;;4902886;29;19927;-71
2023/02/15 02:04:58;;;;;;;;;;;-1.20;99.90;;;;;;4917146;29;19953;-72
2023/02/15 02:07:32;;;;;;;;;;;-1.20;99.90;;;;;;4898971;29;19934;-72
2023/02/15 02:10:04;;;;;;;;;;;-1.20;99.90;;;;;;4918392;29;19930;-72
2023/02/15 02:12:57;;;;;;;;;;;-1.20;99.90;;;;;;4899675;29;19938;-71
2023/02/15 02:15:55;;;;;;;;;;;-1.20;99.90;;;;;;4926101;29;19939;-72
2023/02/15 02:18:49;;;;;;;;;;;-1.20;99.90;;;;;;4930498;29;20046;-72
2023/02/15 02:21:37;;;;;;;;;;;-1.20;99.90;;;;;;4915245;29;20102;-72
2023/02/15 02:24:53;;;;;;;;;;;-1.20;99.90;;;;;;4930387;29;20046;-72
2023/02/15 02:27:53;;;;;;;;;;;-1.20;99.90;;;;;;4927136;29;20299;-72
2023/02/15 02:30:43;;;;;;;;;;;-1.20;99.90;;;;;;4929414;29;19934;-72
2023/02/15 02:33:23;;;;;;;;;;;-1.20;99.90;;;;;;4927405;29;19927;-72
2023/02/15 02:36:14;;;;;;;;;;;-1.20;99.90;;;;;;4908125;29;19950;-71
2023/02/15 02:38:53;;;;;;;;;;;-1.20;99.90;;;;;;4930896;29;19937;-71
2023/02/15 02:41:27;;;;;;;;;;;-1.20;99.90;;;;;;4909980;29;20395;-72
2023/02/15 02:44:04;;;;;;;;;;;-1.20;99.90;;;;;;4929559;29;20017;-72
2023/02/15 02:46:52;;;;;;;;;;;-1.20;99.90;;;;;;4929467;29;19931;-72
2023/02/15 02:49:33;;;;;;;;;;;-1.20;99.90;;;;;;4902321;29;19931;-71
2023/02/15 02:52:27;;;;;;;;;;;-1.30;99.90;;;;;;4914061;29;19926;-72
2023/02/15 02:55:28;;;;;;;;;;;-1.40;99.90;;;;;;4933482;29;20373;-72
2023/02/15 02:58:02;;;;;;;;;;;-1.50;99.90;;;;;;4913108;29;19927;-71
2023/02/15 03:00:47;;;;;;;;;;;-1.50;99.90;;;;;;4923255;29;19934;-71
2023/02/15 03:03:45;;;;;;;;;;;-1.40;99.90;;;;;;4930789;29;19953;-72
2023/02/15 03:06:23;;;;;;;;;;;-1.40;99.90;;;;;;4915120;29;20030;-72
2023/02/15 03:08:58;;;;;;;;;;;-1.40;99.90;;;;;;4916397;29;19950;-73
2023/02/15 03:11:33;;;;;;;;;;;-1.40;99.90;;;;;;4932102;29;19930;-71
2023/02/15 03:14:04;;;;;;;;;;;-1.30;99.90;;;;;;4933779;29;19938;-71
2023/02/15 03:16:34;;;;;;;;;;;-1.30;99.90;;;;;;4888968;29;19927;-71
2023/02/15 03:19:09;;;;;;;;;;;-1.40;99.90;;;;;;4904211;29;19927;-72
2023/02/15 03:22:03;;;;;;;;;;;-1.30;99.90;;;;;;4923828;29;19927;-72
2023/02/15 03:24:35;;;;;;;;;;;-1.30;99.90;;;;;;4920250;29;19991;-72
2023/02/15 03:27:08;;;;;;;;;;;-1.30;99.90;;;;;;4932741;29;19951;-72
2023/02/15 03:29:40;;;;;;;;;;;-1.30;99.90;;;;;;4942428;29;19949;-73
2023/02/15 03:32:10;;;;;;;;;;;-1.30;99.90;;;;;;4920961;29;20357;-72
2023/02/15 03:34:43;;;;;;;;;;;-1.30;99.90;;;;;;4935393;29;19943;-72
2023/02/15 03:37:18;;;;;;;;;;;-1.40;99.90;;;;;;4901469;29;19933;-72
2023/02/15 03:42:56;;;;;;;;;;;-1.50;99.90;;;;;;4908810;29;19926;-72
2023/02/15 03:45:30;;;;;;;;;;;-1.50;99.90;;;;;;4920483;29;20301;-72
2023/02/15 03:48:05;;;;;;;;;;;-1.40;99.90;;;;;;4926063;29;19938;-72
2023/02/15 03:54:03;;;;;;;;;;;-1.50;99.90;;;;;;4934136;29;20018;-71
2023/02/15 04:01:56;;;;;;;;;;;-1.50;99.90;;;;;;4913580;29;19950;-72
2023/02/15 04:02:57;;;;;;;;;;;-1.50;99.90;;;;;;4913362;29;19927;-72
2023/02/15 04:05:33;;;;;;;;;;;-1.50;99.90;;;;;;4916071;29;19933;-72
2023/02/15 04:08:19;;;;;;;;;;;-1.50;99.90;;;;;;4927147;29;19934;-72
2023/02/15 04:11:02;;;;;;;;;;;-1.50;99.90;;;;;;4915541;29;19934;-72
2023/02/15 04:16:42;;;;;;;;;;;-1.50;99.90;;;;;;4913951;29;20022;-72
2023/02/15 04:25:51;;;;;;;;;;;-1.40;99.90;;;;;;4933313;29;19937;-73
2023/02/15 04:28:29;;;;;;;;;;;-1.50;99.90;;;;;;4918449;29;19931;-72
2023/02/15 04:31:30;;;;;;;;;;;-1.50;99.90;;;;;;4930701;29;19943;-72
2023/02/15 04:34:00;;;;;;;;;;;-1.50;99.90;;;;;;4935626;29;19926;-71
2023/02/15 04:36:51;;;;;;;;;;;-1.40;99.90;;;;;;4926209;29;19927;-73
2023/02/15 04:39:27;;;;;;;;;;;-1.40;99.90;;;;;;4937019;29;20026;-72
2023/02/15 04:42:26;;;;;;;;;;;-1.30;99.90;;;;;;4922249;29;19937;-72
2023/02/15 04:45:19;;;;;;;;;;;-1.30;99.90;;;;;;4917988;29;19933;-71
2023/02/15 04:47:56;;;;;;;;;;;-1.30;99.90;;;;;;4915206;29;20021;-72
2023/02/15 04:50:53;;;;;;;;;;;-1.30;99.90;;;;;;4923035;29;19919;-71
2023/02/15 04:56:52;;;;;;;;;;;-1.30;99.90;;;;;;4931520;29;19927;-72
2023/02/15 04:59:33;;;;;;;;;;;-1.40;99.90;;;;;;4919775;29;19955;-72
2023/02/15 05:02:10;;;;;;;;;;;-1.50;99.90;;;;;;4904720;29;20021;-71
2023/02/15 05:05:03;;;;;;;;;;;-1.60;99.90;;;;;;4921473;29;20041;-72
2023/02/15 05:07:34;;;;;;;;;;;-1.60;99.90;;;;;;4899705;29;20010;-71
2023/02/15 05:10:06;;;;;;;;;;;-1.60;99.90;;;;;;4918839;29;19927;-73
2023/02/15 05:15:32;;;;;;;;;;;-1.50;99.90;;;;;;4908011;29;19937;-71
2023/02/15 05:18:01;;;;;;;;;;;-1.50;99.90;;;;;;4917893;29;19970;-73
2023/02/15 05:20:40;;;;;;;;;;;-1.50;99.90;;;;;;4915361;29;19931;-74
2023/02/15 05:23:21;;;;;;;;;;;-1.60;99.90;;;;;;4919914;29;19930;-73
2023/02/15 05:29:09;;;;;;;;;;;-1.90;99.90;;;;;;4913085;29;20017;-72
2023/02/15 05:31:47;;;;;;;;;;;-1.90;99.90;;;;;;4915513;29;19938;-74
2023/02/15 05:34:20;;;;;;;;;;;-1.90;99.90;;;;;;4900565;29;19927;-72
2023/02/15 05:36:48;;;;;;;;;;;-1.90;99.90;;;;;;4916639;29;19933;-72
2023/02/15 05:39:16;;;;;;;;;;;-1.80;99.90;;;;;;4916754;29;19927;-73
2023/02/15 05:41:59;;;;;;;;;;;-1.90;99.90;;;;;;4915472;29;20021;-73
2023/02/15 05:44:32;;;;;;;;;;;-1.90;99.90;;;;;;4914972;29;19927;-73
2023/02/15 05:47:13;;;;;;;;;;;-2.00;99.90;;;;;;4932296;29;19931;-72
2023/02/15 05:49:52;;;;;;;;;;;-2.00;99.90;;;;;;4898044;29;19931;-74
2023/02/15 05:52:27;;;;;;;;;;;-2.10;99.90;;;;;;4914918;29;19970;-73
2023/02/15 05:54:59;;;;;;;;;;;-2.00;99.90;;;;;;4917307;29;19927;-72
2023/02/15 05:57:33;;;;;;;;;;;-1.90;99.90;;;;;;4923364;29;19927;-73
2023/02/15 06:00:04;;;;;;;;;;;-1.90;99.90;;;;;;4902997;29;19931;-72
2023/02/15 06:02:41;;;;;;;;;;;-1.80;99.90;;;;;;4935674;29;19927;-72
2023/02/15 06:05:12;;;;;;;;;;;-1.80;99.90;;;;;;4906669;29;19926;-72
2023/02/15 06:07:45;;;;;;;;;;;-1.80;99.90;;;;;;4919356;29;20297;-72
2023/02/15 06:10:18;;;;;;;;;;;-1.80;99.90;;;;;;4902962;29;19935;-72
2023/02/15 06:12:48;;;;;;;;;;;-1.90;99.90;;;;;;4918106;29;20296;-73
2023/02/15 06:15:21;;;;;;;;;;;-1.90;99.90;;;;;;4905582;29;19931;-72
2023/02/15 06:17:50;;;;;;;;;;;-1.90;99.90;;;;;;4944631;29;19950;-72
2023/02/15 06:20:20;;;;;;;;;;;-1.90;99.90;;;;;;4916801;29;19931;-72
2023/02/15 06:22:53;;;;;;;;;;;-1.90;99.90;;;;;;4905851;29;19927;-73
2023/02/15 06:25:24;;;;;;;;;;;-1.90;99.90;;;;;;4924087;29;20017;-72
2023/02/15 06:27:56;;;;;;;;;;;-1.80;99.90;;;;;;4915473;29;19991;-73
2023/02/15 06:30:26;;;;;;;;;;;-1.90;99.90;;;;;;4919451;29;19927;-72
2023/02/15 06:32:57;;;;;;;;;;;-1.90;99.90;;;;;;4904980;29;19962;-72
2023/02/15 06:35:29;;;;;;;;;;;-1.80;99.90;;;;;;4918949;29;19926;-73
2023/02/15 06:38:05;;;;;;;;;;;-1.90;99.90;;;;;;4918661;29;20611;-73
2023/02/15 06:40:37;;;;;;;;;;;-1.90;99.90;;;;;;4931094;29;20346;-72
2023/02/15 06:43:12;;;;;;;;;;;-1.90;99.90;;;;;;4914842;29;19926;-73
2023/02/15 06:45:49;;;;;;;;;;;-2.00;99.90;;;;;;4914252;29;19933;-72
2023/02/15 06:48:19;;;;;;;;;;;-2.00;99.90;;;;;;4931219;29;19962;-72
2023/02/15 06:53:45;;;;;;;;;;;-2.00;99.90;;;;;;4899096;29;20664;-72
2023/02/15 06:56:20;;;;;;;;;;;-2.00;99.90;;;;;;4903577;29;19930;-73
2023/02/15 06:58:50;;;;;;;;;;;-2.00;99.90;;;;;;4916308;29;20374;-72
2023/02/15 07:01:26;;;;;;;;;;;-2.00;99.90;;;;;;4916202;29;19927;-72
2023/02/15 07:03:56;;;;;;;;;;;-1.90;99.90;;;;;;4896971;29;20172;-73
2023/02/15 07:06:32;;;;;;;;;;;-2.00;99.90;;;;;;4927294;29;19942;-72
2023/02/15 07:09:04;;;;;;;;;;;-2.00;99.90;;;;;;4899148;29;19927;-72
2023/02/15 07:14:33;;;;;;;;;;;-2.00;99.90;;;;;;4910927;29;19927;-73
2023/02/15 07:17:05;;;;;;;;;;;-2.00;99.90;;;;;;4912063;29;19927;-72
2023/02/15 07:19:35;;;;;;;;;;;-1.90;99.90;;;;;;4894323;29;19927;-72
2023/02/15 07:22:07;;;;;;;;;;;-1.90;99.90;;;;;;4903933;29;19962;-72
2023/02/15 07:24:37;;;;;;;;;;;-1.90;99.90;;;;;;4908597;29;19931;-72
2023/02/15 07:27:14;;;;;;;;;;;-1.90;99.90;;;;;;4913471;29;19927;-73
2023/02/15 07:29:45;;;;;;;;;;;-1.90;99.90;;;;;;4898461;29;20389;-73
2023/02/15 07:32:19;;;;;;;;;;;-1.80;99.90;;;;;;4915688;29;19994;-73
2023/02/15 07:34:51;;;;;;;;;;;-1.80;99.90;;;;;;4905728;29;19942;-72
2023/02/15 07:37:27;;;;;;;;;;;-1.70;99.90;;;;;;4905093;29;20295;-73
2023/02/15 07:40:01;;;;;;;;;;;-1.70;99.90;;;;;;4922966;29;19926;-73
2023/02/15 07:42:36;;;;;;;;;;;-1.70;99.90;;;;;;4918351;29;19934;-73
2023/02/15 07:45:06;;;;;;;;;;;-1.70;99.90;;;;;;4909615;29;19931;-73
2023/02/15 07:47:36;;;;;;;;;;;-1.70;99.90;;;;;;4920793;29;19927;-72
2023/02/15 07:50:07;;;;;;;;;;;-1.80;99.90;;;;;;4918749;29;19933;-73
2023/02/15 07:52:38;;;;;;;;;;;-1.70;99.90;;;;;;4905735;29;20389;-72
2023/02/15 07:55:12;;;;;;;;;;;-1.60;99.90;;;;;;4925646;29;19927;-73
2023/02/15 07:57:50;;;;;;;;;;;-1.60;99.90;;;;;;4923588;29;19990;-72
2023/02/15 08:00:21;;;;;;;;;;;-1.50;99.90;;;;;;4928571;29;19927;-74
2023/02/15 08:03:15;;;;;;;;;;;-1.50;99.90;;;;;;4910223;29;19931;-71
2023/02/15 08:05:48;;;;;;;;;;;-1.40;99.90;;;;;;4917904;29;20389;-73
2023/02/15 08:08:30;;;;;;;;;;;-1.30;99.90;;;;;;4921815;29;20017;-72
2023/02/15 08:13:54;;;;;;;;;;;-1.30;99.90;;;;;;4924092;29;19974;-74
2023/02/15 08:16:27;;;;;;;;;;;-1.20;99.90;;;;;;4903939;29;20030;-74
2023/02/15 08:18:54;;;;;;;;;;;-1.20;99.90;;;;;;4914308;29;19927;-74
2023/02/15 08:21:27;;;;;;;;;;;-1.20;99.90;;;;;;4936747;29;19935;-74
2023/02/15 08:24:00;;;;;;;;;;;-1.10;99.90;;;;;;4930754;29;19931;-72
2023/02/15 08:26:29;;;;;;;;;;;-1.20;99.90;;;;;;4928708;29;19931;-72
2023/02/15 08:29:02;;;;;;;;;;;-1.20;99.90;;;;;;4924313;29;20294;-71
2023/02/15 08:31:37;;;;;;;;;;;-1.20;99.90;;;;;;4915159;29;19950;-71
2023/02/15 08:34:04;;;;;;;;;;;-1.20;99.90;;;;;;4934799;29;20289;-72
2023/02/15 08:36:35;;;;;;;;;;;-1.20;99.90;;;;;;4929920;29;20564;-72
2023/02/15 08:39:07;;;;;;;;;;;-1.20;99.90;;;;;;4911710;29;19942;-73
2023/02/15 08:41:35;;;;;;;;;;;-1.20;99.90;;;;;;4903858;29;20037;-73
2023/02/15 08:44:08;;;;;;;;;;;-1.20;99.90;;;;;;4912684;29;19975;-72
2023/02/15 08:46:41;;;;;;;;;;;-1.30;99.90;;;;;;4916367;29;19935;-73
2023/02/15 08:49:15;;;;;;;;;;;-1.20;99.90;;;;;;4915366;29;19930;-72
2023/02/15 08:51:47;;;;;;;;;;;-1.20;99.90;;;;;;4911634;29;20338;-72
2023/02/15 08:54:19;;;;;;;;;;;-1.20;99.90;;;;;;4914845;29;19927;-73
2023/02/15 08:56:51;;;;;;;;;;;-1.20;99.90;;;;;;4918848;29;19990;-74
2023/02/15 08:59:23;;;;;;;;;;;-1.10;99.90;;;;;;4912461;29;19934;-74
2023/02/15 09:01:55;;;;;;;;;;;-1.10;99.90;;;;;;4933022;29;19951;-73
2023/02/15 09:04:22;;;;;;;;;;;-1.00;99.90;;;;;;4909935;29;19934;-73
2023/02/15 09:06:54;;;;;;;;;;;-0.90;99.90;;;;;;4942389;29;19958;-72
2023/02/15 09:09:26;;;;;;;;;;;-0.90;99.90;;;;;;4938770;29;19982;-74
2023/02/15 09:11:58;;;;;;;;;;;-0.80;99.90;;;;;;4924484;29;19975;-74
2023/02/15 09:14:29;;;;;;;;;;;-0.70;99.90;;;;;;4912413;29;20021;-73
2023/02/15 09:17:01;;;;;;;;;;;-0.70;99.90;;;;;;4932821;29;19998;-73
2023/02/15 09:19:33;;;;;;;;;;;-0.70;99.90;;;;;;4933268;29;19931;-73
2023/02/15 09:22:05;;;;;;;;;;;-0.70;99.90;;;;;;4912219;29;19927;-73
2023/02/15 09:24:37;;;;;;;;;;;-0.70;99.90;;;;;;4931358;29;19943;-73
2023/02/15 09:27:08;;;;;;;;;;;-0.80;99.90;;;;;;4927102;29;20448;-73
2023/02/15 09:29:40;;;;;;;;;;;-0.70;99.90;;;;;;4917733;29;19927;-72
2023/02/15 09:32:17;;;;;;;;;;;-0.70;99.90;;;;;;4899805;29;20374;-73
2023/02/15 09:34:48;;;;;;;;;;;-0.60;99.90;;;;;;4931572;29;19926;-73
2023/02/15 09:37:20;;;;;;;;;;;-0.50;99.90;;;;;;4917357;29;20325;-72
2023/02/15 09:39:47;;;;;;;;;;;-0.50;99.90;;;;;;4911031;29;20064;-72
2023/02/15 09:42:22;;;;;;;;;;;-0.40;99.90;;;;;;4933076;29;19937;-72
2023/02/15 09:45:07;;;;;;;;;;;-0.40;99.90;;;;;;4890254;29;19927;-72
2023/02/15 09:47:57;;;;;;;;;;;-0.30;99.90;;;;;;4903979;29;19970;-73
2023/02/15 09:50:35;;;;;;;;;;;-0.20;99.90;;;;;;4907905;29;20465;-72
2023/02/15 09:53:07;;;;;;;;;;;-0.20;99.90;;;;;;4898573;29;19942;-73
2023/02/15 09:55:39;;;;;;;;;;;-0.10;99.90;;;;;;4909565;29;19927;-73
2023/02/15 09:58:16;;;;;;;;;;;0.00;99.90;;;;;;4912848;29;19955;-73
2023/02/15 10:00:50;;;;;;;;;;;0.10;99.90;;;;;;4911948;29;20535;-73
2023/02/15 10:03:31;;;;;;;;;;;0.10;99.90;;;;;;4911692;29;19935;-72
2023/02/15 10:06:15;;;;;;;;;;;0.20;99.90;;;;;;4908538;29;19975;-73
2023/02/15 10:09:07;;;;;;;;;;;0.20;99.90;;;;;;4906985;29;19931;-71
2023/02/15 10:11:48;;;;;;;;;;;0.20;99.90;;;;;;4907374;29;19927;-72
2023/02/15 10:14:39;;;;;;;;;;;0.30;99.90;;;;;;4910481;29;19927;-72
2023/02/15 10:17:20;;;;;;;;;;;0.30;99.90;;;;;;4893495;29;19927;-73
2023/02/15 10:19:52;;;;;;;;;;;0.30;99.90;;;;;;4897438;29;19927;-73
2023/02/15 10:22:33;;;;;;;;;;;0.50;99.90;;;;;;4907789;29;19935;-73
2023/02/15 10:25:18;;;;;;;;;;;0.50;99.90;;;;;;4924602;29;19931;-73
2023/02/15 10:27:50;;;;;;;;;;;0.60;99.90;;;;;;4911598;29;19931;-73
2023/02/15 10:30:27;;;;;;;;;;;0.60;99.90;;;;;;4913195;29;19931;-73
2023/02/15 10:33:11;;;;;;;;;;;0.80;99.90;;;;;;4907975;29;20287;-73
2023/02/15 10:35:54;;;;;;;;;;;0.90;99.90;;;;;;4906596;29;19982;-72
2023/02/15 10:38:26;;;;;;;;;;;0.90;99.90;;;;;;4924923;29;19990;-73
2023/02/15 10:41:07;;;;;;;;;;;1.00;99.90;;;;;;4907537;29;19931;-72
2023/02/15 10:43:47;;;;;;;;;;;1.10;99.90;;;;;;4911892;29;19959;-73
2023/02/15 10:46:19;;;;;;;;;;;1.20;99.90;;;;;;4925175;29;19934;-72
2023/02/15 10:49:13;;;;;;;;;;;1.30;99.90;;;;;;4905209;29;20438;-73
2023/02/15 10:51:50;;;;;;;;;;;1.30;99.90;;;;;;4908337;29;19931;-73
2023/02/15 10:54:22;;;;;;;;;;;1.30;99.90;;;;;;4907807;29;19934;-73
2023/02/15 10:56:53;;;;;;;;;;;1.30;99.90;;;;;;4909940;29;19927;-73
2023/02/15 10:59:20;;;;;;;;;;;1.40;99.90;;;;;;4896480;29;19938;-73
2023/02/15 11:01:56;;;;;;;;;;;1.50;99.90;;;;;;4908667;29;20509;-73
2023/02/15 11:04:45;;;;;;;;;;;1.60;99.90;;;;;;4908554;29;19970;-73
2023/02/15 11:07:22;;;;;;;;;;;1.70;99.90;;;;;;4912478;29;19927;-72
2023/02/15 11:10:05;;;;;;;;;;;1.80;99.90;;;;;;4920869;29;20015;-73
2023/02/15 11:12:37;;;;;;;;;;;1.90;99.90;;;;;;4910102;29;19938;-73
2023/02/15 11:15:11;;;;;;;;;;;2.10;99.90;;;;;;4919792;29;19935;-73
2023/02/15 11:17:51;;;;;;;;;;;2.20;99.90;;;;;;4912615;29;19935;-73
2023/02/15 11:20:38;;;;;;;;;;;2.30;99.90;;;;;;4907070;29;19955;-73
2023/02/15 11:23:12;;;;;;;;;;;2.30;99.90;;;;;;4913162;29;19931;-73
2023/02/15 11:25:38;;;;;;;;;;;2.30;99.90;;;;;;4895899;29;19931;-73
2023/02/15 11:28:19;;;;;;;;;;;2.40;99.90;;;;;;4924528;29;20601;-74
2023/02/15 11:30:53;;;;;;;;;;;2.40;99.90;;;;;;4910786;29;20454;-73
2023/02/15 11:33:27;;;;;;;;;;;2.40;99.90;;;;;;4907281;29;19959;-73
2023/02/15 11:36:01;;;;;;;;;;;2.50;99.90;;;;;;4907609;29;19931;-73
2023/02/15 11:38:33;;;;;;;;;;;2.60;99.90;;;;;;4914380;29;19927;-73
2023/02/15 11:41:06;;;;;;;;;;;2.70;99.90;;;;;;4911515;29;19964;-73
2023/02/15 11:43:43;;;;;;;;;;;2.80;99.90;;;;;;4908470;29;19931;-73
2023/02/15 11:46:15;;;;;;;;;;;2.80;99.90;;;;;;4908260;29;19931;-72
2023/02/15 11:48:42;;;;;;;;;;;2.90;99.90;;;;;;4904919;29;19935;-72
2023/02/15 11:51:15;;;;;;;;;;;2.90;99.90;;;;;;4908276;29;19946;-72
2023/02/15 11:53:48;;;;;;;;;;;3.00;99.90;;;;;;4914379;29;19991;-72
2023/02/15 11:56:23;;;;;;;;;;;3.10;99.90;;;;;;4935825;29;19955;-72
2023/02/15 11:58:55;;;;;;;;;;;3.20;99.90;;;;;;4920112;29;19997;-72
2023/02/15 12:01:32;;;;;;;;;;;3.30;99.90;;;;;;4906586;29;19927;-73
2023/02/15 12:04:07;;;;;;;;;;;3.50;99.90;;;;;;4917892;29;19949;-72
2023/02/15 12:07:07;;;;;;;;;;;3.60;99.90;;;;;;4903899;29;19927;-72
2023/02/15 12:09:40;;;;;;;;;;;3.70;99.90;;;;;;4893063;29;19931;-72
2023/02/15 12:12:27;;;;;;;;;;;3.80;99.90;;;;;;4912178;29;19934;-73
2023/02/15 12:15:11;;;;;;;;;;;4.00;99.90;;;;;;4916438;29;19979;-72
2023/02/15 12:17:50;;;;;;;;;;;4.10;99.90;;;;;;4912180;29;19931;-72
2023/02/15 12:20:31;;;;;;;;;;;4.20;99.90;;;;;;4917391;29;20000;-75
2023/02/15 12:23:15;;;;;;;;;;;4.30;99.90;;;;;;4901091;29;20305;-72
2023/02/15 12:25:53;;;;;;;;;;;4.40;99.90;;;;;;4905670;29;20018;-72
2023/02/15 12:28:45;;;;;;;;;;;4.60;99.90;;;;;;4909909;29;19931;-72
2023/02/15 12:31:24;;;;;;;;;;;4.70;99.90;;;;;;4915255;29;19927;-71
2023/02/15 12:33:57;;;;;;;;;;;4.80;99.90;;;;;;4916003;29;19934;-72
2023/02/15 12:36:45;;;;;;;;;;;5.00;99.90;;;;;;4909838;29;20685;-72
2023/02/15 12:39:14;;;;;;;;;;;5.00;99.90;;;;;;4892095;29;20382;-72
2023/02/15 12:41:46;;;;;;;;;;;5.20;99.90;;;;;;4878037;29;19927;-72
2023/02/15 12:44:19;;;;;;;;;;;5.30;99.90;;;;;;4900036;29;19934;-71
2023/02/15 12:47:07;;;;;;;;;;;5.50;99.90;;;;;;4916010;29;20374;-72
2023/02/15 12:49:38;;;;;;;;;;;5.60;99.90;;;;;;4897216;29;19927;-72
2023/02/15 12:52:21;;;;;;;;;;;5.80;99.90;;;;;;4914655;29;20462;-72
2023/02/15 12:55:03;;;;;;;;;;;5.80;99.90;;;;;;4900250;29;19930;-73
2023/02/15 12:57:33;;;;;;;;;;;6.00;99.90;;;;;;4894669;29;19990;-72
2023/02/15 13:00:24;;;;;;;;;;;6.10;99.90;;;;;;4900969;29;19934;-72
2023/02/15 13:03:09;;;;;;;;;;;;;;;;;;;;;
2023/02/15 13:05:43;;;;;;;;;;;6.20;99.90;;;;;;4913730;29;19938;-71
2023/02/15 13:08:21;;;;;;;;;;;6.30;99.90;;;;;;4894724;29;20022;-71
2023/02/15 13:10:54;;;;;;;;;;;6.40;99.90;;;;;;4902787;29;19982;-73
2023/02/15 13:13:26;;;;;;;;;;;6.50;99.90;;;;;;4899533;29;19927;-72
2023/02/15 13:16:01;;;;;;;;;;;6.60;99.90;;;;;;4928079;29;19934;-71
2023/02/15 13:18:35;;;;;;;;;;;6.70;99.90;;;;;;4915664;29;19927;-72
2023/02/15 13:21:19;;;;;;;;;;;6.80;99.90;;;;;;4913029;29;19934;-72
2023/02/15 13:26:50;;;;;;;;;;;7.00;99.90;;;;;;4926146;29;19995;-71
2023/02/15 13:29:28;;;;;;;;;;;7.10;99.90;;;;;;4913866;29;19927;-72
2023/02/15 13:32:08;;;;;;;;;;;7.20;99.90;;;;;;4910235;29;19935;-72
2023/02/15 13:34:39;;;;;;;;;;;7.30;99.90;;;;;;4911423;29;19950;-72
2023/02/15 13:37:27;;;;;;;;;;;7.40;99.90;;;;;;4915318;29;19927;-73
2023/02/15 13:40:31;;;;;;;;;;;7.50;99.90;;;;;;4925796;29;20022;-72
2023/02/15 13:43:12;;;;;;;;;;;7.60;99.90;;;;;;4927987;29;20006;-72
2023/02/15 13:45:50;;;;;;;;;;;7.70;99.90;;;;;;4912987;29;19927;-72
2023/02/15 13:48:46;;;;;;;;;;;7.80;99.90;;;;;;4924066;29;19938;-71
2023/02/15 13:51:19;;;;;;;;;;;7.90;99.90;;;;;;4912171;29;20484;-72
2023/02/15 13:53:55;;;;;;;;;;;7.90;99.90;;;;;;4915069;29;19927;-72
2023/02/15 13:56:40;;;;;;;;;;;8.00;99.90;;;;;;4891022;29;19966;-73
2023/02/15 13:59:31;;;;;;;;;;;8.00;99.90;;;;;;4911660;29;19931;-72
2023/02/15 14:02:05;;;;;;;;;;;8.10;99.90;;;;;;4916268;29;20010;-72
2023/02/15 14:04:53;;;;;;;;;;;8.10;99.90;;;;;;4917161;29;19931;-72
2023/02/15 14:07:49;;;;;;;;;;;8.10;99.90;;;;;;4907716;29;19938;-72
2023/02/15 14:10:30;;;;;;;;;;;8.20;99.90;;;;;;4908866;29;19962;-72
2023/02/15 14:13:12;;;;;;;;;;;8.20;99.90;;;;;;4922190;29;19997;-72
2023/02/15 14:15:48;;;;;;;;;;;8.20;99.90;;;;;;4895339;29;19927;-73
2023/02/15 14:18:35;;;;;;;;;;;8.30;99.90;;;;;;4914298;29;19927;-72
2023/02/15 14:21:04;;;;;;;;;;;8.30;99.90;;;;;;4914285;29;20009;-72
2023/02/15 14:23:56;;;;;;;;;;;8.40;99.90;;;;;;4914908;29;19969;-72
2023/02/15 14:26:37;;;;;;;;;;;8.50;99.90;;;;;;4894111;29;20005;-71
2023/02/15 14:29:08;;;;;;;;;;;8.50;99.90;;;;;;4931773;29;19927;-72
2023/02/15 14:32:12;;;;;;;;;;;8.60;99.90;;;;;;4906591;29;19933;-72
2023/02/15 14:34:45;;;;;;;;;;;8.60;99.90;;;;;;4915046;29;19931;-72
2023/02/15 14:37:23;;;;;;;;;;;8.60;99.90;;;;;;4915035;29;19934;-72
2023/02/15 14:43:02;;;;;;;;;;;8.70;99.90;;;;;;4913424;29;20022;-70
2023/02/15 14:45:42;;;;;;;;;;;8.80;99.90;;;;;;4920292;29;19951;-72
2023/02/15 14:48:14;;;;;;;;;;;8.80;99.90;;;;;;4910538;29;19978;-74
2023/02/15 14:50:47;;;;;;;;;;;8.80;99.90;;;;;;4894929;29;19975;-71
2023/02/15 14:53:16;;;;;;;;;;;8.80;99.90;;;;;;4900789;29;19928;-71
2023/02/15 14:56:09;;;;;;;;;;;8.80;99.90;;;;;;4905666;29;19927;-71
2023/02/15 14:58:56;;;;;;;;;;;8.70;99.90;;;;;;4920824;29;19928;-70
2023/02/15 15:01:30;;;;;;;;;;;8.80;99.90;;;;;;4891190;29;19933;-71
2023/02/15 15:04:08;;;;;;;;;;;8.80;99.90;;;;;;4886807;29;19933;-71
2023/02/15 15:06:44;;;;;;;;;;;8.90;99.90;;;;;;4903516;29;20306;-71
2023/02/15 15:12:27;;;;;;;;;;;8.80;99.90;;;;;;4918626;29;20014;-71
2023/02/15 15:15:20;;;;;;;;;;;8.80;99.90;;;;;;4911950;29;20171;-70
2023/02/15 15:17:55;;;;;;;;;;;8.80;99.90;;;;;;4893470;29;19931;-71
2023/02/15 15:20:27;;;;;;;;;;;8.80;99.90;;;;;;4898141;29;20404;-71
2023/02/15 15:23:19;;;;;;;;;;;8.80;99.90;;;;;;4912581;29;19927;-71
2023/02/15 15:26:23;;;;;;;;;;;8.80;99.90;;;;;;4910499;29;19919;-70
2023/02/15 15:28:59;;;;;;;;;;;8.80;99.90;;;;;;4906360;29;20293;-70
2023/02/15 15:31:50;;;;;;;;;;;8.80;99.90;;;;;;4911241;29;19934;-71
2023/02/15 15:34:44;;;;;;;;;;;8.80;99.90;;;;;;4914696;29;19931;-71
2023/02/15 15:37:26;;;;;;;;;;;8.70;99.90;;;;;;4906063;29;19928;-71
2023/02/15 15:40:42;;;;;;;;;;;8.50;99.90;;;;;;4906011;29;19939;-72
2023/02/15 15:43:33;;;;;;;;;;;8.30;99.90;;;;;;4904639;29;19959;-71
2023/02/15 15:46:27;;;;;;;;;;;8.00;99.90;;;;;;4908869;29;20976;-71
2023/02/15 15:49:04;;;;;;;;;;;7.80;99.90;;;;;;4909049;29;20367;-73
2023/02/15 15:51:50;;;;;;;;;;;7.60;99.90;;;;;;4902047;29;19950;-71
2023/02/15 15:54:27;;;;;;;;;;;7.30;99.90;;;;;;4905295;29;19928;-70
2023/02/15 15:57:04;;;;;;;;;;;7.10;99.90;;;;;;4908155;29;19927;-71
2023/02/15 15:59:44;;;;;;;;;;;6.80;99.90;;;;;;4912709;29;20366;-71
2023/02/15 16:08:30;;;;;;;;;;;6.80;99.90;;;;;;4899782;29;19970;-71
2023/02/15 16:11:03;;;;;;;;;;;6.60;99.90;;;;;;4897522;29;19967;-70
2023/02/15 16:13:49;;;;;;;;;;;6.20;99.90;;;;;;4905899;29;19983;-71
2023/02/15 16:16:31;;;;;;;;;;;5.80;99.90;;;;;;4909799;29;20006;-71